Time;durP1;ratioP1;P1;durP2;ratioP2;P2;SDS_P1;SDS_P2;PMS_P1;PMS_P2;Temp;Humidity;BMP_temperature;BMP_pressure;BME280_temperature;BME280_humidity;BME280_pressure;Samples;Min_cycle;Max_cycle;Signal;HPM_P1;HPM_P2
2024/03/15 00:00:18;;;;;;;39.80;23.30;;;;;;;4.78;58.10;99682.14;107469;1252;184807;-38
2024/03/15 00:05:16;;;;;;;35.70;22.60;;;;;;;4.76;58.37;99675.52;104199;1292;599811;-38
2024/03/15 00:07:46;;;;;;;36.80;21.90;;;;;;;4.76;58.15;99677.35;106583;1265;59581;-37
2024/03/15 00:10:14;;;;;;;39.90;24.00;;;;;;;4.73;58.02;99678.88;106711;1267;59629;-38
2024/03/15 00:12:41;;;;;;;41.40;23.10;;;;;;;4.70;57.69;99678.10;106663;1267;72849;-38
2024/03/15 00:15:09;;;;;;;41.60;23.70;;;;;;;4.65;57.76;99677.34;106704;1266;67655;-38
2024/03/15 00:17:37;;;;;;;37.90;22.90;;;;;;;4.62;57.84;99680.33;106673;1264;166371;-38
2024/03/15 00:20:07;;;;;;;40.20;24.50;;;;;;;4.61;57.98;99674.41;107052;1260;59474;-37
2024/03/15 00:22:36;;;;;;;43.80;25.50;;;;;;;4.59;57.83;99674.14;107063;1261;59272;-37
2024/03/15 00:25:04;;;;;;;43.30;25.30;;;;;;;4.57;57.96;99674.56;107061;1260;73075;-38
2024/03/15 00:27:32;;;;;;;44.90;27.70;;;;;;;4.56;57.99;99671.52;107083;1260;67962;-37
2024/03/15 00:29:59;;;;;;;46.60;27.40;;;;;;;4.52;57.91;99671.07;107024;1260;72769;-37
2024/03/15 00:32:27;;;;;;;46.80;25.60;;;;;;;4.47;58.15;99668.15;106950;1260;60481;-37
2024/03/15 00:34:55;;;;;;;45.70;26.20;;;;;;;4.45;58.24;99662.24;107001;1260;60078;-37
2024/03/15 00:37:22;;;;;;;44.90;26.20;;;;;;;4.44;58.54;99658.73;106998;1260;72607;-37
2024/03/15 00:39:49;;;;;;;43.80;26.00;;;;;;;4.43;58.74;99654.71;106923;1261;67605;-37
2024/03/15 00:42:17;;;;;;;43.60;25.50;;;;;;;4.42;58.83;99655.88;106873;1260;72713;-37
2024/03/15 00:44:44;;;;;;;45.30;26.40;;;;;;;4.41;58.82;99652.52;106963;1260;60546;-38
2024/03/15 00:47:12;;;;;;;42.20;25.30;;;;;;;4.39;58.69;99649.63;107020;1260;60453;-38
2024/03/15 00:49:40;;;;;;;46.10;25.10;;;;;;;4.36;58.86;99650.17;106933;1260;73837;-38
2024/03/15 00:52:08;;;;;;;37.00;22.90;;;;;;;4.33;58.84;99649.94;107018;1260;66408;-38
2024/03/15 00:54:35;;;;;;;41.30;23.40;;;;;;;4.30;58.92;99650.73;106994;1260;72753;-38
2024/03/15 00:57:05;;;;;;;41.10;23.10;;;;;;;4.30;58.85;99648.11;107009;1260;60443;-37
2024/03/15 00:59:32;;;;;;;35.60;22.30;;;;;;;4.30;58.95;99650.70;107003;1260;60504;-38
2024/03/15 01:02:00;;;;;;;38.40;21.70;;;;;;;4.29;58.99;99647.66;106998;1260;73883;-37
2024/03/15 01:04:27;;;;;;;37.50;21.70;;;;;;;4.29;59.22;99645.23;107021;1261;67085;-38
2024/03/15 01:06:55;;;;;;;33.40;19.90;;;;;;;4.30;59.23;99645.64;107011;1260;71432;-37
2024/03/15 01:09:22;;;;;;;32.00;19.60;;;;;;;4.30;59.15;99645.52;107020;1260;61019;-38
2024/03/15 01:11:50;;;;;;;32.90;19.40;;;;;;;4.31;59.25;99647.85;107028;1260;60277;-38
2024/03/15 01:14:18;;;;;;;32.20;19.90;;;;;;;4.32;59.10;99648.05;107014;1260;73837;-37
2024/03/15 01:16:47;;;;;;;32.80;19.10;;;;;;;4.33;59.14;99650.27;106992;1260;67801;-38
2024/03/15 01:19:15;;;;;;;35.20;19.90;;;;;;;4.32;59.20;99650.29;106994;1265;70529;-38
2024/03/15 01:21:43;;;;;;;32.80;19.30;;;;;;;4.31;59.32;99649.23;106929;1263;60453;-37
2024/03/15 01:24:13;;;;;;;36.00;19.60;;;;;;;4.32;59.42;99644.45;106203;1261;1002910;-38
2024/03/15 01:26:41;;;;;;;35.70;18.30;;;;;;;4.33;59.51;99644.52;107304;1257;73865;-37
2024/03/15 01:29:09;;;;;;;28.10;17.40;;;;;;;4.34;59.44;99643.23;107237;1259;67638;-38
2024/03/15 01:31:36;;;;;;;34.70;19.00;;;;;;;4.34;59.51;99643.95;107222;1257;72707;-37
2024/03/15 01:34:03;;;;;;;39.10;18.80;;;;;;;4.35;59.48;99648.52;107150;1260;60519;-37
2024/03/15 01:36:31;;;;;;;29.80;17.50;;;;;;;4.36;59.59;99649.77;107194;1257;60309;-37
2024/03/15 01:38:59;;;;;;;28.90;17.30;;;;;;;4.38;59.40;99646.81;107210;1257;74228;-37
2024/03/15 01:41:26;;;;;;;32.50;18.00;;;;;;;4.40;59.49;99644.23;107197;1257;66743;-37
2024/03/15 01:43:54;;;;;;;31.70;18.50;;;;;;;4.42;59.47;99642.45;107161;1260;72711;-37
2024/03/15 01:46:23;;;;;;;29.00;17.80;;;;;;;4.43;59.51;99639.59;107209;1257;60463;-37
2024/03/15 01:48:52;;;;;;;30.90;18.50;;;;;;;4.45;59.59;99640.36;107226;1257;60456;-37
2024/03/15 01:51:20;;;;;;;33.20;19.30;;;;;;;4.45;59.70;99647.16;106981;1257;73834;-37
2024/03/15 01:53:47;;;;;;;37.90;22.60;;;;;;;4.46;59.97;99643.36;107221;1257;66272;-37
2024/03/15 01:56:15;;;;;;;38.10;22.90;;;;;;;4.49;60.26;99647.20;107139;1257;72694;-37
2024/03/15 01:58:42;;;;;;;41.20;23.70;;;;;;;4.50;60.36;99643.40;107125;1257;60331;-37
2024/03/15 02:01:11;;;;;;;45.30;25.00;;;;;;;4.50;60.46;99642.02;107030;1257;60376;-37
2024/03/15 02:03:39;;;;;;;33.50;19.20;;;;;;;4.47;60.73;99646.60;107271;1257;72717;-37
2024/03/15 02:06:08;;;;;;;43.70;24.30;;;;;;;4.44;61.03;99643.96;107273;1262;66627;-37
2024/03/15 02:08:36;;;;;;;48.80;25.70;;;;;;;4.44;61.18;99644.81;107213;1257;72687;-37
2024/03/15 02:11:03;;;;;;;40.00;23.80;;;;;;;4.41;61.17;99646.88;107021;1257;60456;-38
2024/03/15 02:13:31;;;;;;;38.10;22.80;;;;;;;4.34;61.17;99643.10;107210;1257;60466;-37
2024/03/15 02:15:59;;;;;;;38.50;23.10;;;;;;;4.35;61.25;99653.66;106377;1258;1003673;-37
2024/03/15 02:18:27;;;;;;;37.50;20.90;;;;;;;4.35;61.21;99654.63;107082;1257;67958;-37
2024/03/15 02:20:54;;;;;;;36.10;21.60;;;;;;;4.34;61.31;99653.05;107052;1264;72752;-37
2024/03/15 02:23:22;;;;;;;31.80;19.60;;;;;;;4.34;61.27;99657.98;107216;1257;60434;-37
2024/03/15 02:25:49;;;;;;;32.60;20.50;;;;;;;4.35;61.10;99657.64;107213;1257;59179;-37
2024/03/15 02:28:18;;;;;;;37.50;21.30;;;;;;;4.35;61.14;99659.34;107018;1257;73764;-37
2024/03/15 02:30:46;;;;;;;32.10;19.70;;;;;;;4.35;61.39;99664.70;107188;1257;67673;-37
2024/03/15 02:33:15;;;;;;;33.70;18.40;;;;;;;4.36;61.45;99666.27;107273;1257;72722;-37
2024/03/15 02:35:43;;;;;;;30.20;17.40;;;;;;;4.40;61.61;99671.23;107208;1257;60370;-37
2024/03/15 02:38:10;;;;;;;28.50;16.40;;;;;;;4.50;61.36;99674.00;107155;1262;59257;-37
2024/03/15 02:40:38;;;;;;;27.70;17.00;;;;;;;4.57;61.27;99674.23;107219;1257;72533;-37
2024/03/15 02:43:06;;;;;;;31.30;17.30;;;;;;;4.61;61.11;99676.66;107125;1257;67854;-37
2024/03/15 02:45:34;;;;;;;27.30;16.30;;;;;;;4.63;60.53;99672.56;107256;1257;72457;-38
2024/03/15 02:48:02;;;;;;;31.40;17.70;;;;;;;4.66;60.11;99681.17;107142;1257;60435;-38
2024/03/15 02:50:30;;;;;;;30.10;18.40;;;;;;;4.66;59.86;99679.83;107171;1262;60402;-39
2024/03/15 02:52:59;;;;;;;31.80;19.00;;;;;;;4.65;59.64;99680.90;107162;1257;73839;-38
2024/03/15 02:55:27;;;;;;;29.50;17.10;;;;;;;4.65;59.62;99680.30;107190;1257;67596;-38
2024/03/15 02:57:55;;;;;;;27.30;16.70;;;;;;;4.66;59.35;99686.11;107115;1257;72718;-39
2024/03/15 03:00:24;;;;;;;31.70;17.80;;;;;;;4.67;59.38;99685.02;107203;1257;59580;-38
2024/03/15 03:02:53;;;;;;;27.50;16.70;;;;;;;4.68;59.17;99687.58;107278;1257;60390;-38
2024/03/15 03:05:21;;;;;;;29.50;17.20;;;;;;;4.69;59.17;99685.26;107248;1256;73838;-38
2024/03/15 03:07:49;;;;;;;30.10;17.70;;;;;;;4.70;59.21;99693.11;107272;1257;67588;-38
2024/03/15 03:10:17;;;;;;;30.90;17.10;;;;;;;4.67;58.99;99691.78;107229;1257;72977;-37
2024/03/15 03:12:44;;;;;;;28.90;16.30;;;;;;;4.64;59.05;99695.85;107141;1257;60821;-37
2024/03/15 03:15:12;;;;;;;28.50;16.60;;;;;;;4.62;59.18;99695.36;107122;1256;59554;-37
2024/03/15 03:17:45;;;;;;;29.10;16.70;;;;;;;4.59;59.12;99691.98;107121;1257;72083;-38
2024/03/15 03:20:19;;;;;;;27.80;17.30;;;;;;;4.52;59.23;99691.19;107185;1257;67899;-38
2024/03/15 03:22:51;;;;;;;28.60;16.40;;;;;;;4.42;59.53;99686.80;107225;1257;72737;-38
2024/03/15 03:25:19;;;;;;;29.20;17.20;;;;;;;4.37;59.77;99691.16;107237;1257;59640;-37
2024/03/15 03:27:47;;;;;;;26.90;17.00;;;;;;;4.35;59.90;99689.39;107247;1256;60578;-37
2024/03/15 03:30:14;;;;;;;31.30;17.70;;;;;;;4.34;59.83;99690.66;107255;1257;73991;-37
2024/03/15 03:32:42;;;;;;;33.50;17.50;;;;;;;4.32;60.09;99689.52;107265;1256;67580;-37
2024/03/15 03:35:10;;;;;;;28.30;18.00;;;;;;;4.31;60.10;99687.64;107170;1257;71810;-37
2024/03/15 03:37:38;;;;;;;30.80;19.30;;;;;;;4.30;60.29;99689.48;107168;1257;60408;-37
2024/03/15 03:40:14;;;;;;;31.10;19.40;;;;;;;4.29;60.25;99692.36;107158;1257;59610;-37
2024/03/15 03:42:44;;;;;;;31.40;19.40;;;;;;;4.27;60.35;99692.36;107216;1257;73875;-37
2024/03/15 03:45:22;;;;;;;33.70;19.30;;;;;;;4.24;60.33;99691.70;107280;1257;66270;-37
2024/03/15 03:47:50;;;;;;;33.00;19.80;;;;;;;4.21;60.55;99692.69;107216;1257;72690;-39
2024/03/15 03:50:18;;;;;;;34.90;20.40;;;;;;;4.15;60.72;99692.25;107213;1257;60424;-37
2024/03/15 03:52:46;;;;;;;35.90;21.50;;;;;;;4.15;61.02;99693.98;107262;1257;60521;-37
2024/03/15 03:55:14;;;;;;;37.30;20.40;;;;;;;4.13;61.16;99695.42;107210;1258;72576;-37
2024/03/15 03:57:42;;;;;;;36.70;20.80;;;;;;;4.12;61.33;99699.83;107201;1257;67661;-37
2024/03/15 04:00:16;;;;;;;33.50;19.40;;;;;;;4.13;61.30;99701.85;107227;1257;72733;-37
2024/03/15 04:02:45;;;;;;;33.40;20.50;;;;;;;4.09;61.20;99703.36;107190;1257;60173;-37
2024/03/15 04:05:14;;;;;;;34.50;20.70;;;;;;;4.05;61.33;99705.39;107184;1257;59665;-38
2024/03/15 04:07:45;;;;;;;33.60;20.40;;;;;;;4.04;61.53;99708.52;107260;1257;73887;-38
2024/03/15 04:10:14;;;;;;;37.70;21.00;;;;;;;4.04;61.54;99708.97;107242;1257;67566;-37
2024/03/15 04:12:45;;;;;;;31.20;19.20;;;;;;;4.08;61.55;99712.56;107228;1257;72721;-38
2024/03/15 04:15:14;;;;;;;35.70;18.90;;;;;;;4.11;61.30;99701.54;107267;1258;61251;-38
2024/03/15 04:17:59;;;;;;;33.50;20.10;;;;;;;4.20;61.53;99710.80;107186;1257;61183;-37
2024/03/15 04:20:27;;;;;;;36.80;19.90;;;;;;;4.25;61.63;99707.39;107135;1257;74819;-38
2024/03/15 04:22:56;;;;;;;32.90;20.70;;;;;;;4.30;61.69;99709.93;107060;1258;67958;-37
2024/03/15 04:25:25;;;;;;;34.30;20.40;;;;;;;4.35;61.60;99701.64;107087;1259;72776;-38
2024/03/15 04:27:53;;;;;;;33.00;19.40;;;;;;;4.38;61.47;99702.04;107117;1257;61280;-38
2024/03/15 04:30:22;;;;;;;40.30;21.10;;;;;;;4.42;61.44;99702.15;104834;1257;1003797;-38
2024/03/15 04:32:50;;;;;;;;;;;;;;;4.46;61.48;99701.10;107049;1257;74757;-37
2024/03/15 04:35:18;;;;;;;34.80;19.80;;;;;;;4.47;61.39;99708.83;107081;1257;67643;-37
2024/03/15 04:37:46;;;;;;;33.80;19.80;;;;;;;4.44;61.45;99711.92;107108;1260;72684;-37
2024/03/15 04:40:14;;;;;;;37.50;20.50;;;;;;;4.44;61.40;99717.20;106340;1257;1003700;-37
2024/03/15 04:42:42;;;;;;;38.60;20.80;;;;;;;4.44;61.43;99714.27;107081;1258;61297;-37
2024/03/15 04:45:10;;;;;;;33.70;19.90;;;;;;;4.43;61.54;99717.92;107063;1257;74639;-37
2024/03/15 04:47:39;;;;;;;34.30;20.00;;;;;;;4.44;61.65;99715.58;107224;1254;67969;-37
2024/03/15 04:50:09;;;;;;;33.50;20.50;;;;;;;4.45;61.57;99718.30;107487;1253;72838;-38
2024/03/15 04:52:40;;;;;;;34.90;20.10;;;;;;;4.46;61.80;99716.20;107412;1257;61262;-37
2024/03/15 04:55:13;;;;;;;35.30;21.20;;;;;;;4.48;61.87;99720.05;107420;1253;61311;-37
2024/03/15 04:57:41;;;;;;;32.20;21.60;;;;;;;4.48;61.82;99721.13;107438;1253;74776;-37
2024/03/15 05:00:17;;;;;;;35.90;21.70;;;;;;;4.45;61.85;99721.77;107436;1254;68115;-37
2024/03/15 05:02:49;;;;;;;32.70;21.90;;;;;;;4.40;61.92;99725.13;107432;1254;71477;-38
2024/03/15 05:05:17;;;;;;;38.40;20.60;;;;;;;4.35;61.92;99724.83;107427;1257;61361;-38
2024/03/15 05:07:46;;;;;;;36.90;21.30;;;;;;;4.37;62.05;99726.82;107434;1253;61392;-38
2024/03/15 05:10:16;;;;;;;30.50;19.00;;;;;;;4.41;62.29;99723.70;107438;1253;74655;-38
2024/03/15 05:12:44;;;;;;;34.00;20.70;;;;;;;4.42;62.41;99722.83;107442;1253;66648;-39
2024/03/15 05:15:13;;;;;;;35.90;21.10;;;;;;;4.43;62.53;99729.63;107429;1254;72688;-38
2024/03/15 05:17:41;;;;;;;34.00;21.00;;;;;;;4.42;62.54;99729.31;107452;1253;61203;-38
2024/03/15 05:20:10;;;;;;;32.20;21.20;;;;;;;4.42;62.55;99737.64;107454;1258;60078;-38
2024/03/15 05:22:38;;;;;;;44.10;24.00;;;;;;;4.39;62.73;99741.96;107366;1254;74705;-38
2024/03/15 05:25:10;;;;;;;46.40;25.10;;;;;;;4.36;62.64;99742.73;107326;1253;67598;-39
2024/03/15 05:27:38;;;;;;;41.70;23.90;;;;;;;4.34;62.94;99744.24;107332;1253;72482;-38
2024/03/15 05:30:07;;;;;;;35.90;23.10;;;;;;;4.32;63.13;99746.48;107295;1254;62076;-39
2024/03/15 05:32:34;;;;;;;41.90;21.70;;;;;;;4.29;63.43;99746.26;107403;1253;61177;-38
2024/03/15 05:35:02;;;;;;;35.40;21.50;;;;;;;4.28;63.42;99752.29;107390;1253;74703;-39
2024/03/15 05:37:29;;;;;;;35.70;21.00;;;;;;;4.33;63.41;99747.81;107464;1259;66319;-38
2024/03/15 05:39:57;;;;;;;39.30;22.90;;;;;;;4.35;63.34;99754.89;107441;1254;72711;-39
2024/03/15 05:42:31;;;;;;;38.40;21.80;;;;;;;4.34;63.52;99756.15;107356;1253;61218;-38
2024/03/15 05:44:59;;;;;;;37.10;23.80;;;;;;;4.34;63.52;99759.54;107434;1253;61317;-38
2024/03/15 05:47:26;;;;;;;43.70;23.30;;;;;;;4.34;63.63;99760.95;107394;1253;72763;-38
2024/03/15 05:49:56;;;;;;;39.70;24.10;;;;;;;4.33;63.45;99765.11;107377;1254;66342;-38
2024/03/15 05:52:24;;;;;;;41.00;24.20;;;;;;;4.30;63.57;99765.11;107380;1253;72528;-39
2024/03/15 05:54:52;;;;;;;41.40;24.20;;;;;;;4.29;63.86;99768.12;107436;1253;61072;-39
2024/03/15 05:57:20;;;;;;;45.00;25.30;;;;;;;4.29;64.03;99769.17;107517;1253;61282;-38
2024/03/15 05:59:48;;;;;;;37.30;22.70;;;;;;;4.30;64.20;99771.02;107415;1254;74659;-38
2024/03/15 06:02:15;;;;;;;36.20;22.40;;;;;;;4.38;64.16;99769.20;107468;1253;66319;-38
2024/03/15 06:04:43;;;;;;;39.90;24.00;;;;;;;4.50;64.19;99773.66;107407;1255;71454;-38
2024/03/15 06:07:10;;;;;;;39.80;24.50;;;;;;;4.54;64.32;99773.67;107382;1253;61138;-39
2024/03/15 06:09:41;;;;;;;41.20;23.80;;;;;;;4.55;64.45;99778.10;105908;1259;1003401;-39
2024/03/15 06:12:09;;;;;;;40.40;24.30;;;;;;;4.57;64.66;99775.20;107398;1253;74684;-38
2024/03/15 06:14:37;;;;;;;44.30;25.10;;;;;;;4.59;64.67;99777.15;107403;1254;67544;-38
2024/03/15 06:17:06;;;;;;;42.30;25.60;;;;;;;4.61;64.87;99775.02;107421;1254;72719;-38
2024/03/15 06:19:33;;;;;;;41.00;23.90;;;;;;;4.68;65.05;99768.36;107367;1255;61250;-38
2024/03/15 06:22:01;;;;;;;44.60;25.50;;;;;;;4.75;65.14;99768.55;107370;1253;61509;-38
2024/03/15 06:24:28;;;;;;;38.20;23.30;;;;;;;4.80;65.01;99765.81;107309;1253;73497;-38
2024/03/15 06:26:56;;;;;;;39.00;23.00;;;;;;;4.92;64.96;99765.13;107314;1253;66309;-39
2024/03/15 06:29:32;;;;;;;38.40;23.10;;;;;;;5.07;64.83;99762.54;106723;1253;1003649;-38
2024/03/15 06:32:00;;;;;;;42.50;24.90;;;;;;;5.18;64.85;99763.92;107409;1256;61333;-38
2024/03/15 06:34:31;;;;;;;45.40;23.90;;;;;;;5.27;64.83;99761.35;107445;1258;61146;-38
2024/03/15 06:37:01;;;;;;;40.50;24.70;;;;;;;5.33;64.48;99765.15;107452;1253;74843;-38
2024/03/15 06:42:34;;;;;;;40.60;25.10;;;;;;;5.40;64.03;99762.75;107343;1253;73039;-38
2024/03/15 06:45:12;;;;;;;48.00;25.90;;;;;;;5.35;64.24;99760.95;107488;1253;61113;-38
2024/03/15 06:47:40;;;;;;;41.00;23.80;;;;;;;5.31;64.64;99762.21;107447;1253;60590;-38
2024/03/15 06:52:41;;;;;;;39.30;24.70;;;;;;;5.38;64.72;99766.77;107422;1253;67318;-38
2024/03/15 06:55:10;;;;;;;40.30;23.90;;;;;;;5.41;64.73;99765.08;107392;1253;71502;-38
2024/03/15 06:57:38;;;;;;;46.60;25.10;;;;;;;5.40;65.03;99762.35;107390;1259;61225;-38
2024/03/15 07:00:10;;;;;;;41.70;24.10;;;;;;;5.45;65.07;99763.55;107525;1253;61247;-38
2024/03/15 07:02:44;;;;;;;39.70;26.50;;;;;;;5.47;64.97;99764.50;107433;1259;73708;-38
2024/03/15 07:05:13;;;;;;;43.20;25.70;;;;;;;5.45;65.10;99765.92;107416;1258;66845;-38
2024/03/15 07:07:41;;;;;;;38.60;24.30;;;;;;;5.43;65.20;99766.73;106677;1257;1003534;-38
2024/03/15 07:10:13;;;;;;;38.10;25.40;;;;;;;5.40;65.36;99771.45;107409;1254;61272;-38
2024/03/15 07:12:41;;;;;;;43.70;24.90;;;;;;;5.40;65.46;99768.92;107404;1253;61096;-38
2024/03/15 07:15:09;;;;;;;39.50;23.90;;;;;;;5.47;65.42;99771.96;107411;1254;73853;-38
2024/03/15 07:17:38;;;;;;;38.70;23.40;;;;;;;5.57;65.33;99778.92;107411;1253;67616;-38
2024/03/15 07:20:08;;;;;;;36.50;23.50;;;;;;;5.61;65.53;99775.52;107400;1259;72811;-38
2024/03/15 07:22:37;;;;;;;42.60;25.50;;;;;;;5.68;65.51;99773.05;105936;1254;1003633;-38
2024/03/15 07:25:06;;;;;;;41.20;26.40;;;;;;;5.71;65.36;99771.10;107318;1253;61227;-38
2024/03/15 07:27:34;;;;;;;30.90;20.70;;;;;;;5.72;65.32;99774.29;107422;1259;75399;-38
2024/03/15 07:30:04;;;;;;;43.60;26.40;;;;;;;5.74;65.40;99778.21;107315;1259;68373;-37
2024/03/15 07:32:36;;;;;;;46.00;26.10;;;;;;;5.75;65.33;99776.95;106594;1257;1003652;-38
2024/03/15 07:35:06;;;;;;;42.10;26.30;;;;;;;5.76;65.22;99777.08;107433;1253;61227;-37
2024/03/15 07:37:34;;;;;;;41.90;27.20;;;;;;;5.77;65.20;99777.88;107408;1259;61365;-38
2024/03/15 07:40:01;;;;;;;47.60;25.50;;;;;;;5.76;65.04;99779.83;107412;1253;76844;-38
2024/03/15 07:42:31;;;;;;;40.30;26.70;;;;;;;5.76;65.10;99778.91;107409;1254;66782;-38
2024/03/15 07:44:59;;;;;;;30.60;19.70;;;;;;;5.79;65.26;99780.30;107352;1257;74091;-38
2024/03/15 07:47:26;;;;;;;43.40;25.90;;;;;;;5.88;64.99;99781.11;107391;1253;61247;-37
2024/03/15 07:49:55;;;;;;;45.50;27.50;;;;;;;5.92;64.83;99783.14;107421;1259;61147;-38
2024/03/15 07:52:23;;;;;;;44.90;27.20;;;;;;;5.94;65.10;99781.43;107426;1254;72822;-37
2024/03/15 07:54:51;;;;;;;45.70;27.80;;;;;;;5.93;65.18;99782.25;107400;1253;67782;-38
2024/03/15 07:57:19;;;;;;;44.80;28.90;;;;;;;5.90;65.21;99786.95;107409;1253;71523;-38
2024/03/15 07:59:48;;;;;;;44.90;28.00;;;;;;;5.88;65.67;99783.77;107417;1253;61861;-38
2024/03/15 08:02:15;;;;;;;42.00;25.20;;;;;;;5.86;66.02;99783.81;107367;1253;61247;-38
2024/03/15 08:04:47;;;;;;;36.70;25.00;;;;;;;5.89;65.86;99779.37;107488;1253;73502;-37
2024/03/15 08:07:15;;;;;;;35.10;24.60;;;;;;;5.93;66.04;99775.70;107402;1253;68683;-37
2024/03/15 08:09:45;;;;;;;39.00;24.90;;;;;;;5.96;66.16;99775.23;107367;1259;72822;-37
2024/03/15 08:12:14;;;;;;;42.60;26.70;;;;;;;6.00;66.25;99773.73;107389;1253;61312;-37
2024/03/15 08:14:42;;;;;;;40.60;25.90;;;;;;;6.07;66.16;99772.96;107426;1253;60477;-37
2024/03/15 08:17:10;;;;;;;38.20;24.00;;;;;;;6.20;66.31;99773.64;107379;1259;72710;-37
2024/03/15 08:19:39;;;;;;;37.40;25.50;;;;;;;6.34;65.67;99768.09;107395;1253;68313;-37
2024/03/15 08:22:09;;;;;;;39.10;24.40;;;;;;;6.47;65.00;99768.23;107390;1254;74919;-37
2024/03/15 08:24:37;;;;;;;37.40;22.90;;;;;;;6.62;64.71;99767.61;107339;1255;62956;-37
2024/03/15 08:27:09;;;;;;;33.40;22.00;;;;;;;6.86;64.01;99769.45;107388;1253;61141;-37
2024/03/15 08:29:37;;;;;;;30.00;20.90;;;;;;;7.11;62.59;99763.13;107365;1253;73492;-37
2024/03/15 08:32:07;;;;;;;30.30;21.30;;;;;;;7.29;61.59;99767.05;107413;1253;70195;-37
2024/03/15 08:34:36;;;;;;;33.80;20.90;;;;;;;7.43;60.59;99764.20;107387;1256;73212;-38
2024/03/15 08:37:07;;;;;;;33.00;21.60;;;;;;;7.51;60.03;99763.88;107328;1253;61890;-38
2024/03/15 08:39:36;;;;;;;33.80;21.50;;;;;;;7.56;59.87;99766.89;107342;1254;61237;-37
2024/03/15 08:42:04;;;;;;;37.70;21.50;;;;;;;7.60;60.02;99764.38;107290;1253;72956;-38
2024/03/15 08:44:32;;;;;;;31.10;21.20;;;;;;;7.65;59.29;99758.63;107473;1254;68038;-38
2024/03/15 08:47:00;;;;;;;33.70;20.70;;;;;;;7.66;59.36;99757.19;107317;1257;72826;-38
2024/03/15 08:49:29;;;;;;;32.70;21.80;;;;;;;7.70;59.49;99757.80;107396;1254;61108;-38
2024/03/15 08:51:57;;;;;;;36.00;22.50;;;;;;;7.73;59.05;99754.88;107349;1259;61134;-38
2024/03/15 08:54:26;;;;;;;32.50;21.50;;;;;;;7.66;59.00;99753.27;107373;1254;75242;-38
2024/03/15 08:56:54;;;;;;;31.20;21.20;;;;;;;7.59;59.08;99753.85;107358;1253;66157;-37
2024/03/15 08:59:23;;;;;;;33.70;22.80;;;;;;;7.58;59.55;99748.18;107328;1256;73087;-38
2024/03/15 09:01:50;;;;;;;35.50;22.00;;;;;;;7.62;59.88;99749.64;107378;1257;61455;-37
2024/03/15 09:04:22;;;;;;;29.30;21.50;;;;;;;7.66;59.91;99747.09;107373;1253;61182;-38
2024/03/15 09:06:51;;;;;;;35.70;20.60;;;;;;;7.75;59.86;99746.71;107397;1253;73540;-38
2024/03/15 09:09:21;;;;;;;27.20;19.90;;;;;;;7.77;58.84;99747.01;107396;1253;67779;-38
2024/03/15 09:11:49;;;;;;;31.00;20.60;;;;;;;7.69;58.79;99744.57;107392;1253;72478;-38
2024/03/15 09:14:20;;;;;;;28.90;19.10;;;;;;;7.61;58.85;99743.42;107448;1256;61301;-38
2024/03/15 09:16:50;;;;;;;25.10;19.10;;;;;;;7.55;58.99;99746.59;107413;1253;61131;-38
2024/03/15 09:19:21;;;;;;;29.60;18.80;;;;;;;7.52;59.57;99746.89;107413;1253;75010;-37
2024/03/15 09:21:48;;;;;;;27.50;19.20;;;;;;;7.54;59.00;99748.83;107385;1254;65981;-38
2024/03/15 09:24:18;;;;;;;27.40;20.20;;;;;;;7.53;59.36;99747.90;107426;1254;72831;-38
2024/03/15 09:26:46;;;;;;;29.20;20.20;;;;;;;7.50;59.38;99744.10;107487;1253;61304;-38
2024/03/15 09:29:15;;;;;;;31.90;21.10;;;;;;;7.50;59.72;99743.33;107474;1254;61369;-38
2024/03/15 09:31:45;;;;;;;27.60;18.60;;;;;;;7.52;59.70;99743.95;107353;1254;76664;-38
2024/03/15 09:34:35;;;;;;;28.40;18.60;;;;;;;7.58;59.43;99749.18;107377;1253;67670;-38
2024/03/15 09:37:06;;;;;;;29.40;19.40;;;;;;;7.60;59.08;99753.20;107401;1258;70885;-38
2024/03/15 09:39:34;;;;;;;26.20;19.40;;;;;;;7.61;59.48;99748.83;107393;1253;63008;-38
2024/03/15 09:42:02;;;;;;;31.10;19.90;;;;;;;7.65;59.60;99750.66;107374;1253;61307;-38
2024/03/15 09:44:31;;;;;;;30.10;20.80;;;;;;;7.68;59.26;99751.24;107375;1254;75448;-38
2024/03/15 09:46:59;;;;;;;24.30;19.60;;;;;;;7.68;59.17;99752.73;107406;1254;68401;-38
2024/03/15 09:49:26;;;;;;;27.50;21.30;;;;;;;7.70;59.22;99751.25;107401;1253;73027;-38
2024/03/15 09:51:56;;;;;;;27.50;20.80;;;;;;;7.74;59.33;99754.39;107500;1253;61279;-38
2024/03/15 09:54:23;;;;;;;25.80;16.90;;;;;;;7.77;59.27;99753.58;107311;1253;61126;-39
2024/03/15 09:56:51;;;;;;;28.90;19.70;;;;;;;7.73;59.06;99751.35;107424;1254;73550;-39
2024/03/15 09:59:21;;;;;;;31.60;21.40;;;;;;;7.67;59.18;99753.22;107415;1253;67212;-39
2024/03/15 10:01:49;;;;;;;28.30;21.80;;;;;;;7.66;59.20;99752.92;107394;1256;74792;-39
2024/03/15 10:04:17;;;;;;;32.40;23.90;;;;;;;7.62;59.23;99757.98;107355;1254;60446;-39
2024/03/15 10:06:46;;;;;;;40.90;25.60;;;;;;;7.55;59.49;99757.00;107396;1253;62289;-38
2024/03/15 10:09:17;;;;;;;37.10;24.30;;;;;;;7.48;59.77;99753.76;107441;1254;72860;-39
2024/03/15 10:11:44;;;;;;;35.00;24.70;;;;;;;7.41;59.83;99756.27;107387;1259;67777;-38
2024/03/15 10:14:12;;;;;;;35.80;25.40;;;;;;;7.33;60.13;99755.59;107347;1259;71673;-39
2024/03/15 10:16:39;;;;;;;36.20;24.90;;;;;;;7.29;60.45;99758.04;107311;1253;61612;-39
2024/03/15 10:19:07;;;;;;;34.20;24.00;;;;;;;7.29;60.61;99756.36;107369;1253;61123;-37
2024/03/15 10:21:35;;;;;;;30.80;22.20;;;;;;;7.34;60.49;99753.21;107383;1254;73428;-38
2024/03/15 10:24:03;;;;;;;33.60;23.30;;;;;;;7.42;60.44;99753.98;107378;1259;66832;-38
2024/03/15 10:26:39;;;;;;;32.00;24.00;;;;;;;7.47;60.49;99753.55;107356;1253;71638;-37
2024/03/15 10:29:08;;;;;;;42.50;28.20;;;;;;;7.53;60.56;99750.85;107447;1254;61240;-37
2024/03/15 10:31:36;;;;;;;39.50;30.00;;;;;;;7.59;60.45;99751.22;107133;1254;60474;-37
2024/03/15 10:34:10;;;;;;;42.10;29.40;;;;;;;7.59;60.67;99747.99;107354;1254;76888;-38
2024/03/15 10:36:38;;;;;;;38.20;28.70;;;;;;;7.60;60.35;99747.34;107322;1254;67078;-38
2024/03/15 10:39:09;;;;;;;45.20;31.90;;;;;;;7.62;60.66;99752.96;107413;1254;71519;-37
2024/03/15 10:41:38;;;;;;;42.40;31.20;;;;;;;7.65;61.11;99746.91;107404;1255;61320;-38
2024/03/15 10:44:08;;;;;;;45.10;33.80;;;;;;;7.69;60.89;99741.73;107539;1259;61121;-37
2024/03/15 10:46:36;;;;;;;52.70;36.10;;;;;;;7.74;60.90;99743.15;107364;1254;73437;-37
2024/03/15 10:49:04;;;;;;;50.70;36.00;;;;;;;7.78;60.97;99742.91;107322;1254;66757;-37
2024/03/15 10:51:36;;;;;;;44.10;32.50;;;;;;;7.78;60.64;99738.11;107401;1254;71639;-37
2024/03/15 10:54:04;;;;;;;41.80;31.30;;;;;;;7.91;60.26;99749.90;107301;1254;60353;-38
2024/03/15 10:56:31;;;;;;;46.30;33.50;;;;;;;7.95;60.20;99746.20;107362;1254;60494;-38
2024/03/15 10:58:59;;;;;;;42.90;33.80;;;;;;;7.94;60.11;99749.70;107485;1254;75722;-37
2024/03/15 11:01:26;;;;;;;47.20;33.50;;;;;;;7.90;60.19;99749.87;107492;1254;67274;-37
2024/03/15 11:03:54;;;;;;;48.10;35.90;;;;;;;7.84;60.35;99747.20;107357;1259;72249;-37
2024/03/15 11:06:21;;;;;;;48.40;36.40;;;;;;;7.80;60.43;99744.97;107474;1254;61289;-37
2024/03/15 11:08:49;;;;;;;55.70;38.40;;;;;;;7.78;60.80;99741.75;107491;1258;60319;-37
2024/03/15 11:11:16;;;;;;;54.00;38.50;;;;;;;7.83;60.84;99742.39;107480;1258;73533;-38
2024/03/15 11:13:47;;;;;;;55.40;38.60;;;;;;;7.84;61.01;99747.98;107487;1259;67135;-38
2024/03/15 11:16:18;;;;;;;54.80;38.40;;;;;;;7.84;60.97;99748.84;107504;1254;74950;-37
2024/03/15 11:18:45;;;;;;;53.60;39.10;;;;;;;7.83;60.91;99748.48;107509;1254;61487;-38
2024/03/15 11:21:18;;;;;;;50.60;36.20;;;;;;;7.82;61.19;99748.05;107517;1254;61021;-38
2024/03/15 11:23:46;;;;;;;51.30;36.70;;;;;;;7.89;61.24;99749.22;107481;1254;76893;-38
2024/03/15 11:26:19;;;;;;;52.20;38.70;;;;;;;7.95;61.11;99750.84;107483;1254;69162;-38
2024/03/15 11:28:53;;;;;;;49.00;37.00;;;;;;;7.96;61.01;99749.34;107396;1255;71566;-38
2024/03/15 11:31:28;;;;;;;57.60;40.00;;;;;;;7.97;60.79;99751.91;107382;1254;61318;-38